Home > Products > Valid Products > TAF

000
FTUS43 KDMX 281736
TAFALO
TAF
KALO 281736Z 2818/2918 16014KT P6SM SCT110 BKN250
     FM282300 14007KT P6SM SCT025 BKN080
     FM290600 17005KT 4SM BR SCT006 BKN080
     FM291100 17004KT 3/4SM BR SCT003 BKN080
     FM291500 20008KT 6SM HZ SCT080=



000
FTUS43 KDMX 281736
TAFFOD
TAF
KFOD 281736Z 2818/2918 14009KT P6SM BKN250
     FM290600 15004KT 3SM BR SCT007 BKN110
     FM291100 19004KT 6SM BR SCT007 BKN100
     FM291400 22008KT P6SM SCT100=



000
FTUS43 KDMX 281736
TAFDSM
TAF
KDSM 281736Z 2818/2918 18009KT P6SM BKN250
     FM290400 19005KT 6SM BR SCT030 BKN120
     FM291500 23011KT P6SM SCT120=



000
FTUS43 KDMX 281736
TAFOTM
TAF
KOTM 281736Z 2818/2918 19012KT P6SM BKN250
     FM282300 17006KT P6SM SCT035 BKN080
     FM290800 18009KT 6SM BR SCT030 BKN080
     FM291600 21013KT P6SM SCT080=



000
FTUS43 KDMX 281736
TAFMCW
TAF
KMCW 281736Z 2818/2918 15011KT P6SM BKN110
     FM290600 17005KT 4SM BR SCT006 BKN080
     FM291000 17005KT 3/4SM BR SCT003 BKN080
     FM291400 19008KT 6SM HZ SCT080=



000
FTUS43 KDMX 281736
TAFFOD
TAF
KFOD 281736Z 2818/2918 14009KT P6SM BKN250
     FM290600 15004KT 3SM BR SCT007 BKN110
     FM291100 19004KT 6SM BR SCT007 BKN100
     FM291400 22008KT P6SM SCT100=



000
FTUS43 KDMX 281736
TAFALO
TAF
KALO 281736Z 2818/2918 16014KT P6SM SCT110 BKN250
     FM282300 14007KT P6SM SCT025 BKN080
     FM290600 17005KT 4SM BR SCT006 BKN080
     FM291100 17004KT 3/4SM BR SCT003 BKN080
     FM291500 20008KT 6SM HZ SCT080=



000
FTUS43 KDMX 281736
TAFOTM
TAF
KOTM 281736Z 2818/2918 19012KT P6SM BKN250
     FM282300 17006KT P6SM SCT035 BKN080
     FM290800 18009KT 6SM BR SCT030 BKN080
     FM291600 21013KT P6SM SCT080=



000
FTUS43 KDMX 281736
TAFDSM
TAF
KDSM 281736Z 2818/2918 18009KT P6SM BKN250
     FM290400 19005KT 6SM BR SCT030 BKN120
     FM291500 23011KT P6SM SCT120=



000
FTUS43 KDMX 281736
TAFMCW
TAF
KMCW 281736Z 2818/2918 15011KT P6SM BKN110
     FM290600 17005KT 4SM BR SCT006 BKN080
     FM291000 17005KT 3/4SM BR SCT003 BKN080
     FM291400 19008KT 6SM HZ SCT080=



000
FTUS43 KDMX 281546 AAA
TAFFOD
TAF AMD
KFOD 281546Z 2816/2912 14004KT P6SM BKN250
     FM281900 17012KT P6SM BKN250
     FM290400 15004KT 3SM BR SCT007 BKN030
     FM291100 19004KT 6SM BR SCT007 BKN035=



000
FTUS43 KDMX 281546 AAA
TAFFOD
TAF AMD
KFOD 281546Z 2816/2912 14004KT P6SM BKN250
     FM281900 17012KT P6SM BKN250
     FM290400 15004KT 3SM BR SCT007 BKN030
     FM291100 19004KT 6SM BR SCT007 BKN035=



000
FTUS43 KDMX 281125
TAFFOD
TAF
KFOD 281125Z 2812/2912 17012KT P6SM SCT025 BKN150
     FM290400 15004KT 3SM BR SCT007 BKN030
     FM291100 19004KT 6SM BR SCT007 BKN035=



000
FTUS43 KDMX 281125
TAFMCW
TAF
KMCW 281125Z 2812/2912 15012KT P6SM SCT025 BKN100
     FM282100 14007KT P6SM SCT025 BKN080
     FM290600 17005KT 4SM BR SCT006 BKN030=



000
FTUS43 KDMX 281125
TAFALO
TAF
KALO 281125Z 2812/2912 16012KT P6SM SCT025 SCT100
     FM282300 14007KT P6SM SCT025 BKN080
     FM290600 17005KT 4SM BR SCT006 BKN030=



000
FTUS43 KDMX 281125
TAFOTM
TAF
KOTM 281125Z 2812/2912 15010KT P6SM OVC050
     FM281700 18012KT P6SM BKN050
     FM282200 17006KT P6SM SCT035 BKN080
     FM290800 18009KT 6SM BR SCT030 BKN080=



000
FTUS43 KDMX 281125
TAFDSM
TAF
KDSM 281125Z 2812/2912 13008KT P6SM SCT025 SCT100
     FM281500 18011KT P6SM BKN080
     FM290400 19005KT 6SM BR SCT030 BKN080=



000
FTUS43 KDMX 281125
TAFFOD
TAF
KFOD 281125Z 2812/2912 17012KT P6SM SCT025 BKN150
     FM290400 15004KT 3SM BR SCT007 BKN030
     FM291100 19004KT 6SM BR SCT007 BKN035=



000
FTUS43 KDMX 281125
TAFDSM
TAF
KDSM 281125Z 2812/2912 13008KT P6SM SCT025 SCT100
     FM281500 18011KT P6SM BKN080
     FM290400 19005KT 6SM BR SCT030 BKN080=



000
FTUS43 KDMX 281125
TAFMCW
TAF
KMCW 281125Z 2812/2912 15012KT P6SM SCT025 BKN100
     FM282100 14007KT P6SM SCT025 BKN080
     FM290600 17005KT 4SM BR SCT006 BKN030=



000
FTUS43 KDMX 281125
TAFOTM
TAF
KOTM 281125Z 2812/2912 15010KT P6SM OVC050
     FM281700 18012KT P6SM BKN050
     FM282200 17006KT P6SM SCT035 BKN080
     FM290800 18009KT 6SM BR SCT030 BKN080=



000
FTUS43 KDMX 281125
TAFALO
TAF
KALO 281125Z 2812/2912 16012KT P6SM SCT025 SCT100
     FM282300 14007KT P6SM SCT025 BKN080
     FM290600 17005KT 4SM BR SCT006 BKN030=



000
FTUS43 KDMX 281041 AAA
TAFDSM
TAF AMD
KDSM 281041Z 2811/2906 13008KT P6SM SCT025 SCT100
     FM281700 18012KT P6SM BKN080
     FM282200 13005KT P6SM OVC040
     FM290400 16005KT P6SM BKN150=



000
FTUS43 KDMX 281041 AAA
TAFDSM
TAF AMD
KDSM 281041Z 2811/2906 13008KT P6SM SCT025 SCT100
     FM281700 18012KT P6SM BKN080
     FM282200 13005KT P6SM OVC040
     FM290400 16005KT P6SM BKN150=



000
FTUS43 KDMX 280829 AAB
TAFALO
TAF AMD
KALO 280829Z 2808/2906 13007KT P6SM BKN060
     FM281200 16012KT P6SM SCT025
     FM281800 17013KT P6SM BKN035 BKN060
     FM282300 14007KT P6SM OVC025
     FM290400 15005KT 3SM BR BKN006=



000
FTUS43 KDMX 280829 AAB
TAFALO
TAF AMD
KALO 280829Z 2808/2906 13007KT P6SM BKN060
     FM281200 16012KT P6SM SCT025
     FM281800 17013KT P6SM BKN035 BKN060
     FM282300 14007KT P6SM OVC025
     FM290400 15005KT 3SM BR BKN006=



000
FTUS43 KDMX 280828 AAA
TAFFOD
TAF AMD
KFOD 280828Z 2808/2906 13008KT P6SM OVC100
     FM281100 16012KT P6SM SCT025
     FM281500 19012KT P6SM SCT025 BKN080
     FM282300 15007KT P6SM OVC035
     FM290300 15004KT 3SM BR BKN007=



000
FTUS43 KDMX 280828 AAA
TAFFOD
TAF AMD
KFOD 280828Z 2808/2906 13008KT P6SM OVC100
     FM281100 16012KT P6SM SCT025
     FM281500 19012KT P6SM SCT025 BKN080
     FM282300 15007KT P6SM OVC035
     FM290300 15004KT 3SM BR BKN007=



000
FTUS43 KDMX 280711 AAA
TAFMCW
TAF AMD
KMCW 280711Z 2807/2906 16010KT P6SM -SHSN BKN035
     FM281000 16012KT P6SM SCT025 BKN060
     FM281800 17013KT P6SM BKN035 BKN060
     FM282200 14007KT P6SM OVC025
     FM290400 15005KT 3SM BR BKN006=



000
FTUS43 KDMX 280711 AAA
TAFMCW
TAF AMD
KMCW 280711Z 2807/2906 16010KT P6SM -SHSN BKN035
     FM281000 16012KT P6SM SCT025 BKN060
     FM281800 17013KT P6SM BKN035 BKN060
     FM282200 14007KT P6SM OVC025
     FM290400 15005KT 3SM BR BKN006=



000
FTUS43 KDMX 280540 AAA
TAFALO
TAF AMD
KALO 280540Z 2806/2906 17007KT P6SM -SHSN BKN060
      TEMPO 2806/2808 4SM -SN SCT008 OVC030
     FM280900 15012KT P6SM OVC030
     FM281200 16012KT P6SM BKN025
     FM281800 17013KT P6SM BKN035 BKN060
     FM282300 14007KT P6SM OVC025
     FM290400 15005KT 3SM BR BKN006=



000
FTUS43 KDMX 280540 AAA
TAFALO
TAF AMD
KALO 280540Z 2806/2906 17007KT P6SM -SHSN BKN060
      TEMPO 2806/2808 4SM -SN SCT008 OVC030
     FM280900 15012KT P6SM OVC030
     FM281200 16012KT P6SM BKN025
     FM281800 17013KT P6SM BKN035 BKN060
     FM282300 14007KT P6SM OVC025
     FM290400 15005KT 3SM BR BKN006=



000
FTUS43 KDMX 280536
TAFMCW
TAF
KMCW 280536Z 2806/2906 16010KT P6SM -SHSN BKN035
      TEMPO 2806/2808 4SM -SN OVC030
     FM281000 16012KT P6SM BKN025
     FM281800 17013KT P6SM BKN035 BKN060
     FM282200 14007KT P6SM OVC025
     FM290400 15005KT 3SM BR BKN006=



000
FTUS43 KDMX 280536
TAFFOD
TAF
KFOD 280536Z 2806/2906 13008KT P6SM -SHSN OVC100
      TEMPO 2806/2807 BKN035
     FM280900 16012KT P6SM BKN025
     FM281500 19012KT P6SM SCT025 BKN080
     FM282300 15007KT P6SM OVC035
     FM290300 15004KT 3SM BR BKN007=



000
FTUS43 KDMX 280536
TAFDSM
TAF
KDSM 280536Z 2806/2906 12008KT P6SM BKN120
     FM281000 13008KT P6SM OVC025
     FM281700 18012KT P6SM BKN080
     FM282200 13005KT P6SM OVC040
     FM290400 16005KT P6SM BKN150=



000
FTUS43 KDMX 280536
TAFALO
TAF
KALO 280536Z 2806/2906 17007KT P6SM -SHSN BKN060
      TEMPO 2806/2808 4SM -SN OVC030
     FM281200 16012KT P6SM BKN025
     FM281800 17013KT P6SM BKN035 BKN060
     FM282300 14007KT P6SM OVC025
     FM290400 15005KT 3SM BR BKN006=



000
FTUS43 KDMX 280536
TAFOTM
TAF
KOTM 280536Z 2806/2906 14007KT P6SM BKN080
     FM280900 15010KT P6SM OVC050
     FM281700 18012KT P6SM BKN050
     FM282200 15006KT P6SM OVC035
     FM290500 18009KT P6SM BKN150=



000
FTUS43 KDMX 280536
TAFOTM
TAF
KOTM 280536Z 2806/2906 14007KT P6SM BKN080
     FM280900 15010KT P6SM OVC050
     FM281700 18012KT P6SM BKN050
     FM282200 15006KT P6SM OVC035
     FM290500 18009KT P6SM BKN150=



000
FTUS43 KDMX 280536
TAFMCW
TAF
KMCW 280536Z 2806/2906 16010KT P6SM -SHSN BKN035
      TEMPO 2806/2808 4SM -SN OVC030
     FM281000 16012KT P6SM BKN025
     FM281800 17013KT P6SM BKN035 BKN060
     FM282200 14007KT P6SM OVC025
     FM290400 15005KT 3SM BR BKN006=



000
FTUS43 KDMX 280536
TAFALO
TAF
KALO 280536Z 2806/2906 17007KT P6SM -SHSN BKN060
      TEMPO 2806/2808 4SM -SN OVC030
     FM281200 16012KT P6SM BKN025
     FM281800 17013KT P6SM BKN035 BKN060
     FM282300 14007KT P6SM OVC025
     FM290400 15005KT 3SM BR BKN006=



000
FTUS43 KDMX 280536
TAFFOD
TAF
KFOD 280536Z 2806/2906 13008KT P6SM -SHSN OVC100
      TEMPO 2806/2807 BKN035
     FM280900 16012KT P6SM BKN025
     FM281500 19012KT P6SM SCT025 BKN080
     FM282300 15007KT P6SM OVC035
     FM290300 15004KT 3SM BR BKN007=



000
FTUS43 KDMX 280536
TAFDSM
TAF
KDSM 280536Z 2806/2906 12008KT P6SM BKN120
     FM281000 13008KT P6SM OVC025
     FM281700 18012KT P6SM BKN080
     FM282200 13005KT P6SM OVC040
     FM290400 16005KT P6SM BKN150=



000
FTUS43 KDMX 272334
TAFALO
TAF
KALO 272334Z 2800/2824 28004KT P6SM SCT040
     FM280200 15004KT P6SM OVC045
     FM280800 15007KT P6SM -SHSN OVC035
     FM281300 16012KT P6SM SCT025 BKN060
     FM282000 13006KT P6SM OVC030=



000
FTUS43 KDMX 272334
TAFDSM
TAF
KDSM 272334Z 2800/2824 13007KT P6SM OVC050
     FM280500 15010KT P6SM -SHSN OVC040
     FM281000 13008KT P6SM OVC025
     FM281700 18012KT P6SM BKN040
     FM282200 13005KT P6SM OVC030=



000
FTUS43 KDMX 272334
TAFMCW
TAF
KMCW 272334Z 2800/2824 VRB03KT P6SM OVC040
      TEMPO 2800/2801 SCT040 BKN100
     FM280500 15008KT P6SM -SN BKN035
     FM281000 16012KT P6SM BKN025
     FM281600 17013KT P6SM SCT035 BKN060
     FM282200 14007KT P6SM OVC025=



000
FTUS43 KDMX 272334
TAFOTM
TAF
KOTM 272334Z 2800/2824 VRB04KT P6SM BKN060
     FM280900 15010KT P6SM -SHSN OVC050
     FM281700 18012KT P6SM BKN050
     FM282200 15006KT P6SM OVC035=



000
FTUS43 KDMX 272334
TAFALO
TAF
KALO 272334Z 2800/2824 28004KT P6SM SCT040
     FM280200 15004KT P6SM OVC045
     FM280800 15007KT P6SM -SHSN OVC035
     FM281300 16012KT P6SM SCT025 BKN060
     FM282000 13006KT P6SM OVC030=



000
FTUS43 KDMX 272334
TAFFOD
TAF
KFOD 272334Z 2800/2824 11006KT P6SM OVC050
     FM280400 15011KT P6SM -SHSN BKN035
     FM280900 16012KT P6SM BKN025
     FM281500 19012KT P6SM SCT025 BKN080
     FM282300 15007KT P6SM OVC035=



000
FTUS43 KDMX 272334
TAFOTM
TAF
KOTM 272334Z 2800/2824 VRB04KT P6SM BKN060
     FM280900 15010KT P6SM -SHSN OVC050
     FM281700 18012KT P6SM BKN050
     FM282200 15006KT P6SM OVC035=



000
FTUS43 KDMX 272334
TAFMCW
TAF
KMCW 272334Z 2800/2824 VRB03KT P6SM OVC040
      TEMPO 2800/2801 SCT040 BKN100
     FM280500 15008KT P6SM -SN BKN035
     FM281000 16012KT P6SM BKN025
     FM281600 17013KT P6SM SCT035 BKN060
     FM282200 14007KT P6SM OVC025=



000
FTUS43 KDMX 272334
TAFDSM
TAF
KDSM 272334Z 2800/2824 13007KT P6SM OVC050
     FM280500 15010KT P6SM -SHSN OVC040
     FM281000 13008KT P6SM OVC025
     FM281700 18012KT P6SM BKN040
     FM282200 13005KT P6SM OVC030=



000
FTUS43 KDMX 272334
TAFFOD
TAF
KFOD 272334Z 2800/2824 11006KT P6SM OVC050
     FM280400 15011KT P6SM -SHSN BKN035
     FM280900 16012KT P6SM BKN025
     FM281500 19012KT P6SM SCT025 BKN080
     FM282300 15007KT P6SM OVC035=



000
FTUS43 KDMX 271740
TAFALO
TAF
KALO 271740Z 2718/2818 33010KT P6SM SKC
     FM280000 14004KT P6SM SCT040 BKN250
     FM280500 15007KT P6SM -SHSN OVC035
     FM281600 15012KT P6SM SCT035 OVC120=



000
FTUS43 KDMX 271740
TAFMCW
TAF
KMCW 271740Z 2718/2818 34008KT P6SM SCT250
     FM280000 13003KT P6SM SCT030 BKN250
     FM280300 15008KT P6SM -SN OVC035
     FM281600 15013KT P6SM SCT035 OVC120=



000
FTUS43 KDMX 271740
TAFDSM
TAF
KDSM 271740Z 2718/2818 32006KT P6SM FEW070 SCT300
     FM272100 VRB03KT P6SM BKN070 BKN250
     FM280500 15010KT P6SM -SHSN OVC040
     FM281200 16012KT P6SM SCT040 BKN250=



000
FTUS43 KDMX 271740
TAFFOD
TAF
KFOD 271740Z 2718/2818 VRB03KT P6SM FEW045 SCT250
     FM272200 11004KT P6SM BKN045 OVC250
     FM280400 15011KT P6SM -SHSN OVC040
     FM281500 16012KT P6SM SCT040 OVC150=



000
FTUS43 KDMX 271740
TAFOTM
TAF
KOTM 271740Z 2718/2818 33002KT P6SM SKC
     FM272300 VRB04KT P6SM BKN070 BKN250
     FM280600 14007KT P6SM VCSH OVC045
     FM281300 16012KT P6SM SCT045 BKN250=



000
FTUS43 KDMX 271740
TAFDSM
TAF
KDSM 271740Z 2718/2818 32006KT P6SM FEW070 SCT300
     FM272100 VRB03KT P6SM BKN070 BKN250
     FM280500 15010KT P6SM -SHSN OVC040
     FM281200 16012KT P6SM SCT040 BKN250=



000
FTUS43 KDMX 271740
TAFOTM
TAF
KOTM 271740Z 2718/2818 33002KT P6SM SKC
     FM272300 VRB04KT P6SM BKN070 BKN250
     FM280600 14007KT P6SM VCSH OVC045
     FM281300 16012KT P6SM SCT045 BKN250=



000
FTUS43 KDMX 271740
TAFALO
TAF
KALO 271740Z 2718/2818 33010KT P6SM SKC
     FM280000 14004KT P6SM SCT040 BKN250
     FM280500 15007KT P6SM -SHSN OVC035
     FM281600 15012KT P6SM SCT035 OVC120=



000
FTUS43 KDMX 271740
TAFFOD
TAF
KFOD 271740Z 2718/2818 VRB03KT P6SM FEW045 SCT250
     FM272200 11004KT P6SM BKN045 OVC250
     FM280400 15011KT P6SM -SHSN OVC040
     FM281500 16012KT P6SM SCT040 OVC150=



000
FTUS43 KDMX 271740
TAFMCW
TAF
KMCW 271740Z 2718/2818 34008KT P6SM SCT250
     FM280000 13003KT P6SM SCT030 BKN250
     FM280300 15008KT P6SM -SN OVC035
     FM281600 15013KT P6SM SCT035 OVC120=



000
FTUS43 KDMX 271120
TAFOTM
TAF
KOTM 271120Z 2712/2812 32012KT P6SM SCT015 BKN022
     FM271500 32011KT P6SM SCT025 BKN080
     FM280100 12005KT P6SM BKN080
     FM280700 15009KT P6SM BKN060=



000
FTUS43 KDMX 271120
TAFOTM
TAF
KOTM 271120Z 2712/2812 32012KT P6SM SCT015 BKN022
     FM271500 32011KT P6SM SCT025 BKN080
     FM280100 12005KT P6SM BKN080
     FM280700 15009KT P6SM BKN060=



000
FTUS43 KDMX 271120
TAFMCW
TAF
KMCW 271120Z 2712/2812 33011KT P6SM SCT080
     FM271500 30008KT P6SM SKC
     FM272300 14007KT P6SM OVC080
     FM280500 16013KT P6SM SCT025 OVC050=



000
FTUS43 KDMX 271120
TAFDSM
TAF
KDSM 271120Z 2712/2812 32012KT P6SM SCT015 BKN035
     FM271500 33008KT P6SM SCT080
     FM272000 10008KT P6SM BKN080
     FM280300 15010KT P6SM BKN060=



000
FTUS43 KDMX 271120
TAFDSM
TAF
KDSM 271120Z 2712/2812 32012KT P6SM SCT015 BKN035
     FM271500 33008KT P6SM SCT080
     FM272000 10008KT P6SM BKN080
     FM280300 15010KT P6SM BKN060=



000
FTUS43 KDMX 271120
TAFMCW
TAF
KMCW 271120Z 2712/2812 33011KT P6SM SCT080
     FM271500 30008KT P6SM SKC
     FM272300 14007KT P6SM OVC080
     FM280500 16013KT P6SM SCT025 OVC050=



000
FTUS43 KDMX 271120
TAFALO
TAF
KALO 271120Z 2712/2812 32011KT P6SM SCT080
     FM280200 14005KT P6SM BKN080
     FM280700 14012KT P6SM SCT030 BKN050=



000
FTUS43 KDMX 271120
TAFFOD
TAF
KFOD 271120Z 2712/2812 32006KT P6SM SCT060
     FM272000 14008KT P6SM SCT040 BKN080
     FM280400 16013KT P6SM SCT015 OVC050=



000
FTUS43 KDMX 271120
TAFFOD
TAF
KFOD 271120Z 2712/2812 32006KT P6SM SCT060
     FM272000 14008KT P6SM SCT040 BKN080
     FM280400 16013KT P6SM SCT015 OVC050=



000
FTUS43 KDMX 271120
TAFALO
TAF
KALO 271120Z 2712/2812 32011KT P6SM SCT080
     FM280200 14005KT P6SM BKN080
     FM280700 14012KT P6SM SCT030 BKN050=



000
FTUS43 KDMX 270812 AAA
TAFDSM
TAF AMD
KDSM 270812Z 2708/2806 32013G20KT P6SM OVC012
     FM271000 32012KT P6SM SCT015 BKN035
     FM271500 33008KT P6SM SCT015
     FM272200 VRB04KT P6SM BKN080
     FM280100 10008KT P6SM OVC060
     FM280300 14010KT P6SM OVC050=



000
FTUS43 KDMX 270812 AAA
TAFDSM
TAF AMD
KDSM 270812Z 2708/2806 32013G20KT P6SM OVC012
     FM271000 32012KT P6SM SCT015 BKN035
     FM271500 33008KT P6SM SCT015
     FM272200 VRB04KT P6SM BKN080
     FM280100 10008KT P6SM OVC060
     FM280300 14010KT P6SM OVC050=



000
FTUS43 KDMX 270659 AAA
TAFFOD
TAF AMD
KFOD 270659Z 2707/2806 34012KT P6SM SCT019 BKN080
     FM270900 36012KT P6SM SCT019 OVC060
     FM271100 35005KT P6SM SCT060
     FM271500 VRB04KT P6SM SKC
     FM272000 14008KT P6SM SCT040 BKN080
     FM280400 16013KT P6SM SCT015 OVC050=



000
FTUS43 KDMX 270659 AAA
TAFFOD
TAF AMD
KFOD 270659Z 2707/2806 34012KT P6SM SCT019 BKN080
     FM270900 36012KT P6SM SCT019 OVC060
     FM271100 35005KT P6SM SCT060
     FM271500 VRB04KT P6SM SKC
     FM272000 14008KT P6SM SCT040 BKN080
     FM280400 16013KT P6SM SCT015 OVC050=



000
FTUS43 KDMX 270658 AAA
TAFOTM
TAF AMD
KOTM 270658Z 2707/2806 33014KT P6SM OVC012
     FM270900 32013G20KT P6SM OVC018
     FM271300 32012KT P6SM OVC016
     FM271600 33008KT P6SM SCT015
     FM280000 VRB04KT P6SM BKN080
     FM280300 13009KT P6SM OVC060=



000
FTUS43 KDMX 270532
TAFFOD
TAF
KFOD 270532Z 2706/2806 34009G18KT P6SM SCT011 OVC019
     FM270900 36012KT P6SM SCT019 OVC060
     FM271100 35005KT P6SM SCT060
     FM271500 VRB04KT P6SM SKC
     FM272000 14008KT P6SM SCT040 BKN080
     FM280400 16013KT P6SM SCT015 OVC050=



000
FTUS43 KDMX 270532
TAFDSM
TAF
KDSM 270532Z 2706/2806 33013KT P6SM OVC011
     FM270800 32013G20KT P6SM OVC005
     FM271100 32012KT P6SM OVC015
     FM271500 33008KT P6SM SCT015
     FM272200 VRB04KT P6SM BKN080
     FM280100 10008KT P6SM OVC060
     FM280300 14010KT P6SM OVC050=



000
FTUS43 KDMX 270532
TAFALO
TAF
KALO 270532Z 2706/2806 32012KT P6SM SCT013 OVC020
     FM270900 32018G25KT P6SM OVC025
     FM271200 32013G22KT P6SM SCT025 BKN070
     FM271500 32011KT P6SM SKC
     FM272300 VRB05KT P6SM BKN060
     FM280400 14007KT P6SM OVC060=



000
FTUS43 KDMX 270532
TAFOTM
TAF
KOTM 270532Z 2706/2806 33008KT 4SM BR OVC013
      TEMPO 2706/2707 4SM -SN BKN008
     FM270900 32013G20KT P6SM OVC005
     FM271300 32012KT P6SM OVC015
     FM271600 33008KT P6SM SCT015
     FM280000 VRB04KT P6SM BKN080
     FM280300 13009KT P6SM OVC060=



000
FTUS43 KDMX 270532
TAFMCW
TAF
KMCW 270532Z 2706/2806 32014G22KT P6SM SCT015 OVC025
     FM270800 33015G25KT P6SM SCT025 BKN070
     FM271400 32008KT P6SM SKC
     FM272000 21005KT P6SM BKN060
     FM272300 13007KT P6SM OVC060
     FM280300 17013KT P6SM OVC040=



000
FTUS43 KDMX 270532
TAFALO
TAF
KALO 270532Z 2706/2806 32012KT P6SM SCT013 OVC020
     FM270900 32018G25KT P6SM OVC025
     FM271200 32013G22KT P6SM SCT025 BKN070
     FM271500 32011KT P6SM SKC
     FM272300 VRB05KT P6SM BKN060
     FM280400 14007KT P6SM OVC060=



000
FTUS43 KDMX 270532
TAFOTM
TAF
KOTM 270532Z 2706/2806 33008KT 4SM BR OVC013
      TEMPO 2706/2707 4SM -SN BKN008
     FM270900 32013G20KT P6SM OVC005
     FM271300 32012KT P6SM OVC015
     FM271600 33008KT P6SM SCT015
     FM280000 VRB04KT P6SM BKN080
     FM280300 13009KT P6SM OVC060=



000
FTUS43 KDMX 270532
TAFDSM
TAF
KDSM 270532Z 2706/2806 33013KT P6SM OVC011
     FM270800 32013G20KT P6SM OVC005
     FM271100 32012KT P6SM OVC015
     FM271500 33008KT P6SM SCT015
     FM272200 VRB04KT P6SM BKN080
     FM280100 10008KT P6SM OVC060
     FM280300 14010KT P6SM OVC050=



000
FTUS43 KDMX 270532
TAFFOD
TAF
KFOD 270532Z 2706/2806 34009G18KT P6SM SCT011 OVC019
     FM270900 36012KT P6SM SCT019 OVC060
     FM271100 35005KT P6SM SCT060
     FM271500 VRB04KT P6SM SKC
     FM272000 14008KT P6SM SCT040 BKN080
     FM280400 16013KT P6SM SCT015 OVC050=



000
FTUS43 KDMX 270532
TAFMCW
TAF
KMCW 270532Z 2706/2806 32014G22KT P6SM SCT015 OVC025
     FM270800 33015G25KT P6SM SCT025 BKN070
     FM271400 32008KT P6SM SKC
     FM272000 21005KT P6SM BKN060
     FM272300 13007KT P6SM OVC060
     FM280300 17013KT P6SM OVC040=



000
FTUS43 KDMX 270347 AAD
TAFALO
TAF AMD
KALO 270347Z 2704/2724 35011G18KT P6SM SCT013 OVC025
     FM271100 32009KT P6SM SCT025 BKN070
     FM271400 32008KT P6SM SKC
     FM272300 14005KT P6SM BKN060=



000
FTUS43 KDMX 270347 AAD
TAFALO
TAF AMD
KALO 270347Z 2704/2724 35011G18KT P6SM SCT013 OVC025
     FM271100 32009KT P6SM SCT025 BKN070
     FM271400 32008KT P6SM SKC
     FM272300 14005KT P6SM BKN060=



000
FTUS43 KDMX 270347 AAD
TAFALO
TAF AMD
KALO 270347Z 2704/2724 35011G18KT P6SM SCT013 OVC025
     FM271100 32009KT P6SM SCT025 BKN070
     FM271400 32008KT P6SM SKC
     FM272300 14005KT P6SM BKN060=



000
FTUS43 KDMX 270309 AAC
TAFALO
TAF AMD
KALO 270309Z 2703/2724 35011G18KT P6SM BKN013 OVC070
     FM271100 32009KT P6SM SCT025
     FM271400 32008KT P6SM SKC
     FM272300 14005KT P6SM BKN060=



000
FTUS43 KDMX 270309 AAC
TAFALO
TAF AMD
KALO 270309Z 2703/2724 35011G18KT P6SM BKN013 OVC070
     FM271100 32009KT P6SM SCT025
     FM271400 32008KT P6SM SKC
     FM272300 14005KT P6SM BKN060=



000
FTUS43 KDMX 270308 AAC
TAFOTM
TAF AMD
KOTM 270308Z 2703/2724 36008KT 3SM -SN SCT005 OVC025
      TEMPO 2703/2704 1SM -SN OVC005
     FM270600 32013KT P6SM OVC010
     FM271000 32013G20KT P6SM OVC015
     FM271400 33008KT P6SM SCT015
     FM271600 VRB05KT P6SM SKC
     FM272300 11008KT P6SM BKN050=



000
FTUS43 KDMX 270308 AAC
TAFOTM
TAF AMD
KOTM 270308Z 2703/2724 36008KT 3SM -SN SCT005 OVC025
      TEMPO 2703/2704 1SM -SN OVC005
     FM270600 32013KT P6SM OVC010
     FM271000 32013G20KT P6SM OVC015
     FM271400 33008KT P6SM SCT015
     FM271600 VRB05KT P6SM SKC
     FM272300 11008KT P6SM BKN050=



000
FTUS43 KDMX 270216 AAC
TAFDSM
TAF AMD
KDSM 270216Z 2702/2724 34011KT 4SM -SN OVC008
     FM270400 32013G20KT P6SM OVC010
     FM270800 32012KT P6SM OVC015
     FM271300 33008KT P6SM SCT015
     FM271400 VRB05KT P6SM SKC
     FM272000 17005KT P6SM BKN060
     FM272300 11008KT P6SM OVC060=



000
FTUS43 KDMX 270215 AAB
TAFALO
TAF AMD
KALO 270215Z 2702/2724 35011G18KT P6SM SCT025 OVC070
     FM271100 32009KT P6SM SCT025
     FM271400 32008KT P6SM SKC
     FM272300 14005KT P6SM BKN060=



000
FTUS43 KDMX 270215 AAB
TAFALO
TAF AMD
KALO 270215Z 2702/2724 35011G18KT P6SM SCT025 OVC070
     FM271100 32009KT P6SM SCT025
     FM271400 32008KT P6SM SKC
     FM272300 14005KT P6SM BKN060=



000
FTUS43 KDMX 270148 AAB
TAFOTM
TAF AMD
KOTM 270148Z 2702/2724 03010KT 1SM -SN SCT005 OVC022
      TEMPO 2703/2704 1/2SM SN OVC005
     FM270600 32013KT P6SM OVC010
     FM271000 32013G20KT P6SM OVC015
     FM271400 33008KT P6SM SCT015
     FM271600 VRB05KT P6SM SKC
     FM272300 11008KT P6SM BKN050=



000
FTUS43 KDMX 270148 AAB
TAFOTM
TAF AMD
KOTM 270148Z 2702/2724 03010KT 1SM -SN SCT005 OVC022
      TEMPO 2703/2704 1/2SM SN OVC005
     FM270600 32013KT P6SM OVC010
     FM271000 32013G20KT P6SM OVC015
     FM271400 33008KT P6SM SCT015
     FM271600 VRB05KT P6SM SKC
     FM272300 11008KT P6SM BKN050=



000
FTUS43 KDMX 270146 AAB
TAFDSM
TAF AMD
KDSM 270146Z 2702/2724 01012KT 2SM -SN OVC008
     FM270300 32013G20KT P6SM OVC010
     FM270800 32012KT P6SM OVC015
     FM271300 33008KT P6SM SCT015
     FM271400 VRB05KT P6SM SKC
     FM272000 17005KT P6SM BKN060
     FM272300 11008KT P6SM OVC060=



000
FTUS43 KDMX 270146 AAB
TAFDSM
TAF AMD
KDSM 270146Z 2702/2724 01012KT 2SM -SN OVC008
     FM270300 32013G20KT P6SM OVC010
     FM270800 32012KT P6SM OVC015
     FM271300 33008KT P6SM SCT015
     FM271400 VRB05KT P6SM SKC
     FM272000 17005KT P6SM BKN060
     FM272300 11008KT P6SM OVC060=



000
FTUS43 KDMX 270142 AAB
TAFMCW
TAF AMD
KMCW 270142Z 2702/2724 35015KT P6SM OVC018
      TEMPO 2702/2705 OVC008
     FM271000 32013KT P6SM SCT025
     FM271400 32008KT P6SM SKC
     FM272000 21005KT P6SM SCT040
     FM272300 14007KT P6SM OVC060=



000
FTUS43 KDMX 270142 AAB
TAFMCW
TAF AMD
KMCW 270142Z 2702/2724 35015KT P6SM OVC018
      TEMPO 2702/2705 OVC008
     FM271000 32013KT P6SM SCT025
     FM271400 32008KT P6SM SKC
     FM272000 21005KT P6SM SCT040
     FM272300 14007KT P6SM OVC060=



000
FTUS43 KDMX 270141 AAA
TAFFOD
TAF AMD
KFOD 270141Z 2702/2724 35010G20KT P6SM OVC012
     FM270600 34008KT P6SM BKN015
     FM271000 36006KT P6SM SCT015
     FM271500 VRB04KT P6SM SKC
     FM272000 14008KT P6SM SCT040 BKN080=



000
FTUS43 KDMX 270141 AAA
TAFFOD
TAF AMD
KFOD 270141Z 2702/2724 35010G20KT P6SM OVC012
     FM270600 34008KT P6SM BKN015
     FM271000 36006KT P6SM SCT015
     FM271500 VRB04KT P6SM SKC
     FM272000 14008KT P6SM SCT040 BKN080=



000
FTUS43 KDMX 270025 AAA
TAFALO
TAF AMD
KALO 270025Z 2700/2724 02012KT 3SM -SN OVC035
      TEMPO 2700/2701 3/4SM -SN BKN008
     FM270200 33015KT P6SM OVC030
     FM271100 32009KT P6SM SCT025
     FM271400 32008KT P6SM SKC
     FM272300 14005KT P6SM BKN060=



000
FTUS43 KDMX 270025 AAA
TAFALO
TAF AMD
KALO 270025Z 2700/2724 02012KT 3SM -SN OVC035
      TEMPO 2700/2701 3/4SM -SN BKN008
     FM270200 33015KT P6SM OVC030
     FM271100 32009KT P6SM SCT025
     FM271400 32008KT P6SM SKC
     FM272300 14005KT P6SM BKN060=



000
FTUS43 KDMX 270024 AAA
TAFOTM
TAF AMD
KOTM 270024Z 2700/2724 03008KT 1SM -SN SCT008 OVC019
      TEMPO 2700/2702 1/2SM SN OVC005
     FM270600 32011KT P6SM OVC010
     FM271000 32013KT P6SM OVC015
     FM271400 33008KT P6SM SCT015
     FM271600 VRB05KT P6SM SKC
     FM272300 11008KT P6SM BKN050=



000
FTUS43 KDMX 270024 AAA
TAFOTM
TAF AMD
KOTM 270024Z 2700/2724 03008KT 1SM -SN SCT008 OVC019
      TEMPO 2700/2702 1/2SM SN OVC005
     FM270600 32011KT P6SM OVC010
     FM271000 32013KT P6SM OVC015
     FM271400 33008KT P6SM SCT015
     FM271600 VRB05KT P6SM SKC
     FM272300 11008KT P6SM BKN050=



000
FTUS43 KDMX 270023 AAA
TAFDSM
TAF AMD
KDSM 270023Z 2700/2724 01012KT 6SM -SN OVC010
      TEMPO 2700/2702 1/2SM SN OVC007
     FM270400 32013KT P6SM OVC010
     FM270800 32011KT P6SM OVC015
     FM271300 33008KT P6SM SCT015
     FM271400 VRB05KT P6SM SKC
     FM272000 17005KT P6SM BKN060
     FM272300 11008KT P6SM OVC060=



000
FTUS43 KDMX 270023 AAA
TAFDSM
TAF AMD
KDSM 270023Z 2700/2724 01012KT 6SM -SN OVC010
      TEMPO 2700/2702 1/2SM SN OVC007
     FM270400 32013KT P6SM OVC010
     FM270800 32011KT P6SM OVC015
     FM271300 33008KT P6SM SCT015
     FM271400 VRB05KT P6SM SKC
     FM272000 17005KT P6SM BKN060
     FM272300 11008KT P6SM OVC060=



000
FTUS43 KDMX 270022 AAA
TAFMCW
TAF AMD
KMCW 270022Z 2700/2724 36008KT 4SM -SN BKN011
     FM270200 33015KT P6SM BKN025
     FM271000 32013KT P6SM SCT025
     FM271400 32008KT P6SM SKC
     FM272000 21005KT P6SM SCT040
     FM272300 14007KT P6SM OVC060=



000
FTUS43 KDMX 270022 AAA
TAFMCW
TAF AMD
KMCW 270022Z 2700/2724 36008KT 4SM -SN BKN011
     FM270200 33015KT P6SM BKN025
     FM271000 32013KT P6SM SCT025
     FM271400 32008KT P6SM SKC
     FM272000 21005KT P6SM SCT040
     FM272300 14007KT P6SM OVC060=



000
FTUS43 KDMX 262332 CCA
TAFMCW
TAF COR
KMCW 262332Z 2700/2724 36008KT 3SM -SN OVC035
     FM270200 33015KT P6SM BKN025
     FM271000 32013KT P6SM SCT025
     FM271400 32008KT P6SM SKC
     FM272000 21005KT P6SM SCT040
     FM272300 14007KT P6SM OVC060=



000
FTUS43 KDMX 262331 CCA
TAFFOD
TAF COR
KFOD 262331Z 2700/2724 35009KT 3SM -SN OVC010
      TEMPO 2700/2701 1SM -SN OVC008
     FM270600 34007KT P6SM BKN015
     FM271000 36006KT P6SM SCT015
     FM271500 VRB04KT P6SM SKC
     FM272000 14008KT P6SM SCT040 BKN080=



000
FTUS43 KDMX 262331 CCA
TAFFOD
TAF COR
KFOD 262331Z 2700/2724 35009KT 3SM -SN OVC010
      TEMPO 2700/2701 1SM -SN OVC008
     FM270600 34007KT P6SM BKN015
     FM271000 36006KT P6SM SCT015
     FM271500 VRB04KT P6SM SKC
     FM272000 14008KT P6SM SCT040 BKN080=



000
FTUS43 KDMX 262330
TAFDSM
TAF
KDSM 262330Z 2700/2724 01012KT 6SM -SN OVC008
      TEMPO 2700/2702 1/2SM SN OVC007
     FM270400 32013KT P6SM OVC010
     FM270800 32011KT P6SM OVC015
     FM271300 33008KT P6SM SCT015
     FM271400 VRB05KT P6SM SKC
     FM272000 17005KT P6SM BKN060
     FM272300 11008KT P6SM OVC060=



000
FTUS43 KDMX 262330
TAFALO
TAF
KALO 262330Z 2700/2724 02012KT 2SM -SN OVC025
      TEMPO 2700/2701 3/4SM -SN BKN008
     FM270200 33012KT P6SM OVC030
     FM271100 32009KT P6SM SCT025
     FM271400 32008KT P6SM SKC
     FM272300 14005KT P6SM BKN060=



000
FTUS43 KDMX 262330
TAFMCW
TAF
KMCW 262330Z 2700/2724 36008KT 2SM -SN BKN015 OVC030
     FM270200 33015KT P6SM BKN025
     FM271000 32013KT P6SM SCT025
     FM271400 32008KT P6SM SKC
     FM272000 21005KT P6SM SCT040
     FM272300 14007KT P6SM OVC060=



000
FTUS43 KDMX 262330
TAFOTM
TAF
KOTM 262330Z 2700/2724 03008KT 1SM -SN OVC006
      TEMPO 2700/2702 1/2SM SN OVC005
     FM270600 32011KT P6SM OVC010
     FM271000 32013KT P6SM OVC015
     FM271400 33008KT P6SM SCT015
     FM271600 VRB05KT P6SM SKC
     FM272300 11008KT P6SM BKN050=



000
FTUS43 KDMX 262330
TAFFOD
TAF
KFOD 262330Z 2700/2724 35009KT 1SM -SN OVC010
      TEMPO 2700/2701 1/2SM SN OVC008
     FM270600 34007KT P6SM BKN015
     FM271000 36006KT P6SM SCT015
     FM271500 VRB04KT P6SM SKC
     FM272000 14008KT P6SM SCT040 BKN080=



000
FTUS43 KDMX 262330
TAFDSM
TAF
KDSM 262330Z 2700/2724 01012KT 6SM -SN OVC008
      TEMPO 2700/2702 1/2SM SN OVC007
     FM270400 32013KT P6SM OVC010
     FM270800 32011KT P6SM OVC015
     FM271300 33008KT P6SM SCT015
     FM271400 VRB05KT P6SM SKC
     FM272000 17005KT P6SM BKN060
     FM272300 11008KT P6SM OVC060=



000
FTUS43 KDMX 262330
TAFOTM
TAF
KOTM 262330Z 2700/2724 03008KT 1SM -SN OVC006
      TEMPO 2700/2702 1/2SM SN OVC005
     FM270600 32011KT P6SM OVC010
     FM271000 32013KT P6SM OVC015
     FM271400 33008KT P6SM SCT015
     FM271600 VRB05KT P6SM SKC
     FM272300 11008KT P6SM BKN050=



000
FTUS43 KDMX 262330
TAFALO
TAF
KALO 262330Z 2700/2724 02012KT 2SM -SN OVC025
      TEMPO 2700/2701 3/4SM -SN BKN008
     FM270200 33012KT P6SM OVC030
     FM271100 32009KT P6SM SCT025
     FM271400 32008KT P6SM SKC
     FM272300 14005KT P6SM BKN060=



000
FTUS43 KDMX 262330
TAFMCW
TAF
KMCW 262330Z 2700/2724 36008KT 2SM -SN BKN015 OVC030
     FM270200 33015KT P6SM BKN025
     FM271000 32013KT P6SM SCT025
     FM271400 32008KT P6SM SKC
     FM272000 21005KT P6SM SCT040
     FM272300 14007KT P6SM OVC060=



000
FTUS43 KDMX 262330
TAFFOD
TAF
KFOD 262330Z 2700/2724 35009KT 1SM -SN OVC010
      TEMPO 2700/2701 1/2SM SN OVC008
     FM270600 34007KT P6SM BKN015
     FM271000 36006KT P6SM SCT015
     FM271500 VRB04KT P6SM SKC
     FM272000 14008KT P6SM SCT040 BKN080=



000
FTUS43 KDMX 262204 AAB
TAFMCW
TAF AMD
KMCW 262204Z 2622/2718 01011G16KT 2SM -SN BR SCT007 OVC020
      TEMPO 2622/2624 3/4SM -SN BKN007 OVC015
     FM270000 34015G22KT P6SM -SN SCT009 BKN018 OVC025
     FM270200 33012G18KT P6SM SCT012 BKN025
     FM270800 32011KT P6SM SCT015
     FM271400 32008KT P6SM SKC=



000
FTUS43 KDMX 262204 AAB
TAFMCW
TAF AMD
KMCW 262204Z 2622/2718 01011G16KT 2SM -SN BR SCT007 OVC020
      TEMPO 2622/2624 3/4SM -SN BKN007 OVC015
     FM270000 34015G22KT P6SM -SN SCT009 BKN018 OVC025
     FM270200 33012G18KT P6SM SCT012 BKN025
     FM270800 32011KT P6SM SCT015
     FM271400 32008KT P6SM SKC=



000
FTUS43 KDMX 262204 AAB
TAFMCW
TAF AMD
KMCW 262204Z 2622/2718 01011G16KT 2SM -SN BR SCT007 OVC020
      TEMPO 2622/2624 3/4SM -SN BKN007 OVC015
     FM270000 34015G22KT P6SM -SN SCT009 BKN018 OVC025
     FM270200 33012G18KT P6SM SCT012 BKN025
     FM270800 32011KT P6SM SCT015
     FM271400 32008KT P6SM SKC=



000
FTUS43 KDMX 262204 AAB
TAFMCW
TAF AMD
KMCW 262204Z 2622/2718 01011G16KT 2SM -SN BR SCT007 OVC020
      TEMPO 2622/2624 3/4SM -SN BKN007 OVC015
     FM270000 34015G22KT P6SM -SN SCT009 BKN018 OVC025
     FM270200 33012G18KT P6SM SCT012 BKN025
     FM270800 32011KT P6SM SCT015
     FM271400 32008KT P6SM SKC=



000
FTUS43 KDMX 262203 AAB
TAFFOD
TAF AMD
KFOD 262203Z 2622/2718 35011G16KT 3SM -SN BR BKN010 OVC025
      TEMPO 2622/2623 1SM -SN BR BKN009 OVC015
     FM262300 34009KT P6SM SCT012 BKN025
     FM270600 34007KT P6SM SCT015
     FM271500 VRB04KT P6SM SKC=



000
FTUS43 KDMX 262203 AAB
TAFFOD
TAF AMD
KFOD 262203Z 2622/2718 35011G16KT 3SM -SN BR BKN010 OVC025
      TEMPO 2622/2623 1SM -SN BR BKN009 OVC015
     FM262300 34009KT P6SM SCT012 BKN025
     FM270600 34007KT P6SM SCT015
     FM271500 VRB04KT P6SM SKC=



000
FTUS43 KDMX 262203 AAB
TAFFOD
TAF AMD
KFOD 262203Z 2622/2718 35011G16KT 3SM -SN BR BKN010 OVC025
      TEMPO 2622/2623 1SM -SN BR BKN009 OVC015
     FM262300 34009KT P6SM SCT012 BKN025
     FM270600 34007KT P6SM SCT015
     FM271500 VRB04KT P6SM SKC=



000
FTUS43 KDMX 262128 AAA
TAFALO
TAF AMD
KALO 262128Z 2621/2718 01010KT 3SM -SN BR SCT010 OVC019
      TEMPO 2621/2701 3/4SM -SN BKN008 OVC015
     FM270100 34011KT 5SM -SN SCT012 BKN020 OVC030
     FM270300 32011KT P6SM SCT015 BKN030
     FM270900 31010KT P6SM SCT018
     FM271400 33008KT P6SM SKC=



000
FTUS43 KDMX 262128 AAA
TAFALO
TAF AMD
KALO 262128Z 2621/2718 01010KT 3SM -SN BR SCT010 OVC019
      TEMPO 2621/2701 3/4SM -SN BKN008 OVC015
     FM270100 34011KT 5SM -SN SCT012 BKN020 OVC030
     FM270300 32011KT P6SM SCT015 BKN030
     FM270900 31010KT P6SM SCT018
     FM271400 33008KT P6SM SKC=



000
FTUS43 KDMX 262128 AAA
TAFALO
TAF AMD
KALO 262128Z 2621/2718 01010KT 3SM -SN BR SCT010 OVC019
      TEMPO 2621/2701 3/4SM -SN BKN008 OVC015
     FM270100 34011KT 5SM -SN SCT012 BKN020 OVC030
     FM270300 32011KT P6SM SCT015 BKN030
     FM270900 31010KT P6SM SCT018
     FM271400 33008KT P6SM SKC=



000
FTUS43 KDMX 262128 AAA
TAFALO
TAF AMD
KALO 262128Z 2621/2718 01010KT 3SM -SN BR SCT010 OVC019
      TEMPO 2621/2701 3/4SM -SN BKN008 OVC015
     FM270100 34011KT 5SM -SN SCT012 BKN020 OVC030
     FM270300 32011KT P6SM SCT015 BKN030
     FM270900 31010KT P6SM SCT018
     FM271400 33008KT P6SM SKC=



000
FTUS43 KDMX 262126 AAA
TAFFOD
TAF AMD
KFOD 262126Z 2621/2718 35011G16KT 3SM -SN BR BKN010 OVC025
      TEMPO 2621/2622 1SM -SN BR BKN009 OVC015
     FM262300 34009KT P6SM SCT012 BKN025
     FM270600 34007KT P6SM SCT015
     FM271500 VRB04KT P6SM SKC=



000
FTUS43 KDMX 262126 AAA
TAFFOD
TAF AMD
KFOD 262126Z 2621/2718 35011G16KT 3SM -SN BR BKN010 OVC025
      TEMPO 2621/2622 1SM -SN BR BKN009 OVC015
     FM262300 34009KT P6SM SCT012 BKN025
     FM270600 34007KT P6SM SCT015
     FM271500 VRB04KT P6SM SKC=



000
FTUS43 KDMX 262126 AAA
TAFFOD
TAF AMD
KFOD 262126Z 2621/2718 35011G16KT 3SM -SN BR BKN010 OVC025
      TEMPO 2621/2622 1SM -SN BR BKN009 OVC015
     FM262300 34009KT P6SM SCT012 BKN025
     FM270600 34007KT P6SM SCT015
     FM271500 VRB04KT P6SM SKC=



000
FTUS43 KDMX 262126 AAA
TAFFOD
TAF AMD
KFOD 262126Z 2621/2718 35011G16KT 3SM -SN BR BKN010 OVC025
      TEMPO 2621/2622 1SM -SN BR BKN009 OVC015
     FM262300 34009KT P6SM SCT012 BKN025
     FM270600 34007KT P6SM SCT015
     FM271500 VRB04KT P6SM SKC=



000
FTUS43 KDMX 262053 AAA
TAFDSM
TAF AMD
KDSM 262053Z 2621/2718 01013KT P6SM -SN BKN008 BKN011 OVC020
      TEMPO 2621/2624 5SM -SN
     FM270000 34013G19KT P6SM SCT009 BKN012 OVC035
     FM270400 32013KT P6SM SCT015 BKN030
     FM270800 32011KT P6SM SCT020
     FM271400 VRB05KT P6SM SKC=



000
FTUS43 KDMX 262051 AAA
TAFOTM
TAF AMD
KOTM 262051Z 2621/2718 04011KT 3SM -SN BKN007 OVC015
      TEMPO 2621/2624 1SM -SN
     FM270000 34011KT 5SM -SN BKN012 OVC025
     FM270300 32013G18KT P6SM SCT015 BKN030
     FM271400 31010KT P6SM SCT030=



000
FTUS43 KDMX 262051 AAA
TAFOTM
TAF AMD
KOTM 262051Z 2621/2718 04011KT 3SM -SN BKN007 OVC015
      TEMPO 2621/2624 1SM -SN
     FM270000 34011KT 5SM -SN BKN012 OVC025
     FM270300 32013G18KT P6SM SCT015 BKN030
     FM271400 31010KT P6SM SCT030=



000
FTUS43 KDMX 261919 AAA
TAFMCW
TAF AMD
KMCW 261919Z 2619/2718 01012G18KT 2SM -SN BR SCT007 OVC020
      TEMPO 2619/2622 3/4SM -SN BKN007 OVC015
     FM262200 34015G22KT P6SM -SN SCT009 BKN018 OVC025
     FM270200 33012G18KT P6SM SCT012 BKN025
     FM270800 32011KT P6SM SCT015
     FM271400 32008KT P6SM SKC=



000
FTUS43 KDMX 261744
TAFFOD
TAF
KFOD 261744Z 2618/2718 35012G18KT 3SM -SN BR BKN010 OVC025
      TEMPO 2618/2621 1SM -SN BR BKN009 OVC015
     FM270000 34009KT P6SM SCT012 BKN025
     FM270600 34007KT P6SM SCT015
     FM271500 VRB04KT P6SM SKC=



000
FTUS43 KDMX 261744
TAFMCW
TAF
KMCW 261744Z 2618/2718 01010G16KT P6SM SCT011 OVC035
      TEMPO 2618/2622 3SM -SN BKN008 OVC015
     FM262200 34015G22KT P6SM -SN SCT009 BKN018 OVC025
     FM270200 33012G18KT P6SM SCT012 BKN025
     FM270800 32011KT P6SM SCT015
     FM271400 32008KT P6SM SKC=



000
FTUS43 KDMX 261744
TAFMCW
TAF
KMCW 261744Z 2618/2718 01010G16KT P6SM SCT011 OVC035
      TEMPO 2618/2622 3SM -SN BKN008 OVC015
     FM262200 34015G22KT P6SM -SN SCT009 BKN018 OVC025
     FM270200 33012G18KT P6SM SCT012 BKN025
     FM270800 32011KT P6SM SCT015
     FM271400 32008KT P6SM SKC=



000
FTUS43 KDMX 261744
TAFALO
TAF
KALO 261744Z 2618/2718 09011KT P6SM SCT015 BKN040
      TEMPO 2620/2624 4SM -SN BKN015 OVC030
     FM270000 34011KT 5SM -SN SCT012 BKN020 OVC030
     FM270300 32011KT P6SM SCT015 BKN030
     FM270900 31010KT P6SM SCT018
     FM271400 33008KT P6SM SKC=



000
FTUS43 KDMX 261744
TAFDSM
TAF
KDSM 261744Z 2618/2718 05010KT 6SM -SN BKN007 BKN011 OVC020
      TEMPO 2618/2621 3SM -SN
     FM262100 34013G19KT P6SM SCT009 BKN012 OVC025
     FM270400 32013KT P6SM SCT015 BKN030
     FM270800 32011KT P6SM SCT020
     FM271400 VRB05KT P6SM SKC=



000
FTUS43 KDMX 261744
TAFDSM
TAF
KDSM 261744Z 2618/2718 05010KT 6SM -SN BKN007 BKN011 OVC020
      TEMPO 2618/2621 3SM -SN
     FM262100 34013G19KT P6SM SCT009 BKN012 OVC025
     FM270400 32013KT P6SM SCT015 BKN030
     FM270800 32011KT P6SM SCT020
     FM271400 VRB05KT P6SM SKC=



000
FTUS43 KDMX 261744
TAFFOD
TAF
KFOD 261744Z 2618/2718 35012G18KT 3SM -SN BR BKN010 OVC025
      TEMPO 2618/2621 1SM -SN BR BKN009 OVC015
     FM270000 34009KT P6SM SCT012 BKN025
     FM270600 34007KT P6SM SCT015
     FM271500 VRB04KT P6SM SKC=



000
FTUS43 KDMX 261744
TAFOTM
TAF
KOTM 261744Z 2618/2718 09011KT 3SM -SN BKN007 OVC015
      TEMPO 2618/2620 1SM -SN
     FM262300 34011KT 5SM -SN BKN012 OVC025
     FM270300 32013G18KT P6SM SCT015 BKN030
     FM271400 31010KT P6SM SCT030=



000
FTUS43 KDMX 261744
TAFOTM
TAF
KOTM 261744Z 2618/2718 09011KT 3SM -SN BKN007 OVC015
      TEMPO 2618/2620 1SM -SN
     FM262300 34011KT 5SM -SN BKN012 OVC025
     FM270300 32013G18KT P6SM SCT015 BKN030
     FM271400 31010KT P6SM SCT030=



000
FTUS43 KDMX 261744
TAFALO
TAF
KALO 261744Z 2618/2718 09011KT P6SM SCT015 BKN040
      TEMPO 2620/2624 4SM -SN BKN015 OVC030
     FM270000 34011KT 5SM -SN SCT012 BKN020 OVC030
     FM270300 32011KT P6SM SCT015 BKN030
     FM270900 31010KT P6SM SCT018
     FM271400 33008KT P6SM SKC=



000
FTUS43 KDMX 261705 AAB
TAFDSM
TAF AMD
KDSM 261705Z 2617/2712 06009KT 3SM -SN BKN008 OVC018
      TEMPO 2617/2619 2SM -SN BKN007
     FM261900 35011KT 5SM -RASN BKN010 OVC020
     FM262100 34013G19KT 5SM -SN BKN012 OVC025
     FM270000 33014G20KT P6SM SCT015 BKN030
     FM270700 32011KT P6SM SCT020=



000
FTUS43 KDMX 261705 AAB
TAFDSM
TAF AMD
KDSM 261705Z 2617/2712 06009KT 3SM -SN BKN008 OVC018
      TEMPO 2617/2619 2SM -SN BKN007
     FM261900 35011KT 5SM -RASN BKN010 OVC020
     FM262100 34013G19KT 5SM -SN BKN012 OVC025
     FM270000 33014G20KT P6SM SCT015 BKN030
     FM270700 32011KT P6SM SCT020=



000
FTUS43 KDMX 261703 AAA
TAFMCW
TAF AMD
KMCW 261703Z 2617/2712 07010KT 2SM -SN BKN008 OVC015
      TEMPO 2617/2618 P6SM NSW SCT015 BKN040
     FM261900 02011KT 4SM -SN SCT007 BKN013 OVC020
     FM262200 34015G22KT P6SM -SN SCT009 BKN018 OVC025
     FM270200 33012G18KT P6SM SCT012 BKN025
     FM270800 32011KT P6SM SCT015=



000
FTUS43 KDMX 261703 AAA
TAFMCW
TAF AMD
KMCW 261703Z 2617/2712 07010KT 2SM -SN BKN008 OVC015
      TEMPO 2617/2618 P6SM NSW SCT015 BKN040
     FM261900 02011KT 4SM -SN SCT007 BKN013 OVC020
     FM262200 34015G22KT P6SM -SN SCT009 BKN018 OVC025
     FM270200 33012G18KT P6SM SCT012 BKN025
     FM270800 32011KT P6SM SCT015=



000
FTUS43 KDMX 261609 AAB
TAFALO
TAF AMD
KALO 261609Z 2616/2712 08009KT P6SM SCT015 BKN050
      TEMPO 2616/2620 2SM -SN BKN015 OVC030
     FM270000 34011KT 5SM -SN SCT012 BKN020 OVC030
     FM270400 32011KT P6SM SCT015 BKN030
     FM270900 31010KT P6SM SCT018=



000
FTUS43 KDMX 261609 AAB
TAFALO
TAF AMD
KALO 261609Z 2616/2712 08009KT P6SM SCT015 BKN050
      TEMPO 2616/2620 2SM -SN BKN015 OVC030
     FM270000 34011KT 5SM -SN SCT012 BKN020 OVC030
     FM270400 32011KT P6SM SCT015 BKN030
     FM270900 31010KT P6SM SCT018=



000
FTUS43 KDMX 261609 AAB
TAFALO
TAF AMD
KALO 261609Z 2616/2712 08009KT P6SM SCT015 BKN050
      TEMPO 2616/2620 2SM -SN BKN015 OVC030
     FM270000 34011KT 5SM -SN SCT012 BKN020 OVC030
     FM270400 32011KT P6SM SCT015 BKN030
     FM270900 31010KT P6SM SCT018=



000
FTUS43 KDMX 261428 AAA
TAFOTM
TAF AMD
KOTM 261428Z 2614/2712 11012KT 4SM -SN SCT005 SCT018 BKN030
      TEMPO 2614/2616 2SM -SN BKN005 OVC018
     FM261600 VRB06KT 4SM -RASN BKN009 OVC020
     FM262300 34011KT 5SM -SN BKN012 OVC025
     FM270300 32013G19KT P6SM SCT015 BKN030=



000
FTUS43 KDMX 261428 AAA
TAFOTM
TAF AMD
KOTM 261428Z 2614/2712 11012KT 4SM -SN SCT005 SCT018 BKN030
      TEMPO 2614/2616 2SM -SN BKN005 OVC018
     FM261600 VRB06KT 4SM -RASN BKN009 OVC020
     FM262300 34011KT 5SM -SN BKN012 OVC025
     FM270300 32013G19KT P6SM SCT015 BKN030=



000
FTUS43 KDMX 261426 AAA
TAFFOD
TAF AMD
KFOD 261426Z 2614/2712 10010KT 3SM -SN SCT005 BKN018
      TEMPO 2615/2617 2SM -SN BKN005
     FM261700 01011KT 3SM -SN SCT008 BKN018 OVC025
     FM261900 35012G18KT 4SM -SN SCT010 BKN020 OVC030
     FM270100 34009KT P6SM SCT012 BKN025
     FM270600 34007KT P6SM SCT015=



000
FTUS43 KDMX 261425 AAA
TAFALO
TAF AMD
KALO 261425Z 2614/2712 10009KT P6SM BKN060
      TEMPO 2614/2616 4SM -SN BKN015
     FM261600 07009KT 3SM -SN SCT007 BKN015 OVC030
      TEMPO 2616/2619 2SM -SN BKN008 OVC014
     FM270000 34011KT 5SM -SN SCT012 BKN020 OVC030
     FM270400 32011KT P6SM SCT015 BKN030
     FM270900 31010KT P6SM SCT018=



000
FTUS43 KDMX 261425 AAA
TAFALO
TAF AMD
KALO 261425Z 2614/2712 10009KT P6SM BKN060
      TEMPO 2614/2616 4SM -SN BKN015
     FM261600 07009KT 3SM -SN SCT007 BKN015 OVC030
      TEMPO 2616/2619 2SM -SN BKN008 OVC014
     FM270000 34011KT 5SM -SN SCT012 BKN020 OVC030
     FM270400 32011KT P6SM SCT015 BKN030
     FM270900 31010KT P6SM SCT018=



000
FTUS43 KDMX 261422 AAA
TAFDSM
TAF AMD
KDSM 261422Z 2614/2712 VRB06KT 3SM -SN BKN008 OVC018
      TEMPO 2614/2616 3SM -FZDZ BKN007
     FM261900 35011KT 5SM -RASN BKN010 OVC020
     FM262100 34013G19KT 5SM -SN BKN012 OVC025
     FM270100 33014G20KT P6SM SCT015 BKN030
     FM270700 32011KT P6SM SCT020=



000
FTUS43 KDMX 261422 AAA
TAFDSM
TAF AMD
KDSM 261422Z 2614/2712 VRB06KT 3SM -SN BKN008 OVC018
      TEMPO 2614/2616 3SM -FZDZ BKN007
     FM261900 35011KT 5SM -RASN BKN010 OVC020
     FM262100 34013G19KT 5SM -SN BKN012 OVC025
     FM270100 33014G20KT P6SM SCT015 BKN030
     FM270700 32011KT P6SM SCT020=



000
FTUS43 KDMX 261131
TAFDSM
TAF
KDSM 261131Z 2612/2712 12010KT 2SM -SN BKN007 OVC016
      TEMPO 2612/2613 1SM -SN BR BKN004
     FM261300 VRB06KT 3SM -SN BKN008 OVC018
     FM261900 35011KT 5SM -RASN BKN010 OVC020
     FM262100 34013G19KT 5SM -SN BKN012 OVC025
     FM270100 33014G20KT P6SM SCT015 BKN030
     FM270700 32011KT P6SM SCT020=



000
FTUS43 KDMX 261131
TAFALO
TAF
KALO 261131Z 2612/2712 10010KT P6SM SCT030 OVC050
     FM261300 09009KT 4SM -SN SCT007 BKN020 OVC030
      TEMPO 2614/2617 2SM -SN BKN008 OVC018
     FM261700 07009KT 3SM -SN BKN010 OVC020
     FM262100 04010KT 4SM -SN SCT011 BKN018 OVC025
     FM270000 34011KT 5SM -SN SCT012 BKN020 OVC030
     FM270400 32011KT P6SM SCT015 BKN030
     FM270900 31010KT P6SM SCT018=



000
FTUS43 KDMX 261131
TAFOTM
TAF
KOTM 261131Z 2612/2712 13009KT 4SM -SN SCT006 BKN020 OVC030
      TEMPO 2613/2615 2SM -SN BKN005 OVC018
     FM261500 VRB06KT 4SM -RASN BKN009 OVC020
     FM262300 34011KT 5SM -SN BKN012 OVC025
     FM270300 32013G19KT P6SM SCT015 BKN030=



000
FTUS43 KDMX 261131
TAFFOD
TAF
KFOD 261131Z 2612/2712 11011KT 3SM -SN SCT005 BKN020
      TEMPO 2612/2614 2SM -SN BKN005
     FM261400 06009KT 4SM -SN BKN007 OVC015
     FM261700 01011KT 3SM -SN SCT008 BKN018 OVC025
     FM261900 35012G18KT 4SM -SN SCT010 BKN020 OVC030
     FM270100 34009KT P6SM SCT012 BKN025
     FM270600 34007KT P6SM SCT015=



000
FTUS43 KDMX 261131
TAFMCW
TAF
KMCW 261131Z 2612/2712 11011KT 3SM -SN SCT004 BKN018
      TEMPO 2612/2616 2SM -SN BKN004 OVC012
     FM261600 07010KT 3SM -SN BKN006 OVC012
     FM261900 02011KT 3SM -SN SCT007 BKN013 OVC020
     FM262100 34015G22KT 4SM -SN SCT009 BKN018 OVC025
     FM270300 33012G18KT P6SM SCT012 BKN025
     FM270800 32011KT P6SM SCT015=



000
FTUS43 KDMX 261131
TAFOTM
TAF
KOTM 261131Z 2612/2712 13009KT 4SM -SN SCT006 BKN020 OVC030
      TEMPO 2613/2615 2SM -SN BKN005 OVC018
     FM261500 VRB06KT 4SM -RASN BKN009 OVC020
     FM262300 34011KT 5SM -SN BKN012 OVC025
     FM270300 32013G19KT P6SM SCT015 BKN030=



000
FTUS43 KDMX 261131
TAFALO
TAF
KALO 261131Z 2612/2712 10010KT P6SM SCT030 OVC050
     FM261300 09009KT 4SM -SN SCT007 BKN020 OVC030
      TEMPO 2614/2617 2SM -SN BKN008 OVC018
     FM261700 07009KT 3SM -SN BKN010 OVC020
     FM262100 04010KT 4SM -SN SCT011 BKN018 OVC025
     FM270000 34011KT 5SM -SN SCT012 BKN020 OVC030
     FM270400 32011KT P6SM SCT015 BKN030
     FM270900 31010KT P6SM SCT018=



000
FTUS43 KDMX 261131
TAFDSM
TAF
KDSM 261131Z 2612/2712 12010KT 2SM -SN BKN007 OVC016
      TEMPO 2612/2613 1SM -SN BR BKN004
     FM261300 VRB06KT 3SM -SN BKN008 OVC018
     FM261900 35011KT 5SM -RASN BKN010 OVC020
     FM262100 34013G19KT 5SM -SN BKN012 OVC025
     FM270100 33014G20KT P6SM SCT015 BKN030
     FM270700 32011KT P6SM SCT020=



000
FTUS43 KDMX 261131
TAFFOD
TAF
KFOD 261131Z 2612/2712 11011KT 3SM -SN SCT005 BKN020
      TEMPO 2612/2614 2SM -SN BKN005
     FM261400 06009KT 4SM -SN BKN007 OVC015
     FM261700 01011KT 3SM -SN SCT008 BKN018 OVC025
     FM261900 35012G18KT 4SM -SN SCT010 BKN020 OVC030
     FM270100 34009KT P6SM SCT012 BKN025
     FM270600 34007KT P6SM SCT015=



000
FTUS43 KDMX 261131
TAFMCW
TAF
KMCW 261131Z 2612/2712 11011KT 3SM -SN SCT004 BKN018
      TEMPO 2612/2616 2SM -SN BKN004 OVC012
     FM261600 07010KT 3SM -SN BKN006 OVC012
     FM261900 02011KT 3SM -SN SCT007 BKN013 OVC020
     FM262100 34015G22KT 4SM -SN SCT009 BKN018 OVC025
     FM270300 33012G18KT P6SM SCT012 BKN025
     FM270800 32011KT P6SM SCT015=



000
FTUS43 KDMX 260834 AAA
TAFDSM
TAF AMD
KDSM 260834Z 2609/2706 15010KT 3SM -SN BKN020 OVC030
      TEMPO 2609/2611 1SM -SN OVC010
     FM261800 33010KT P6SM VCSH OVC020
     FM262100 01015G22KT P6SM OVC025
     FM270500 33014G22KT P6SM BKN030=



000
FTUS43 KDMX 260834 AAA
TAFDSM
TAF AMD
KDSM 260834Z 2609/2706 15010KT 3SM -SN BKN020 OVC030
      TEMPO 2609/2611 1SM -SN OVC010
     FM261800 33010KT P6SM VCSH OVC020
     FM262100 01015G22KT P6SM OVC025
     FM270500 33014G22KT P6SM BKN030=



000
FTUS43 KDMX 260520
TAFALO
TAF
KALO 260520Z 2606/2706 14008KT P6SM BKN070
     FM260900 11010KT P6SM SCT012 OVC040
     FM261400 08010KT 3SM -SN OVC015
     FM262000 01008KT 2SM -SN OVC012
     FM270100 32010KT P6SM OVC025
     FM270500 32012G20KT P6SM BKN030=



000
FTUS43 KDMX 260520
TAFMCW
TAF
KMCW 260520Z 2606/2706 15007KT P6SM OVC070
     FM261000 13009KT 4SM -SN OVC020
     FM261200 11009KT 3SM -SN OVC012
     FM261600 06012KT 2SM -SN OVC010
      TEMPO 2616/2618 1/2SM SN BKN006
     FM262100 36014G22KT P6SM OVC015
     FM270300 32017G24KT P6SM BKN025=



000
FTUS43 KDMX 260520
TAFOTM
TAF
KOTM 260520Z 2606/2706 13008KT P6SM SCT040 OVC120
     FM261000 10010KT P6SM OVC040
     FM261200 13010KT 4SM -SN SCT014 OVC020
     FM261900 03009KT 2SM -SN OVC012
     FM262200 35012G20KT 5SM -SN OVC020
     FM270200 32015G22KT P6SM OVC030=



000
FTUS43 KDMX 260520
TAFDSM
TAF
KDSM 260520Z 2606/2706 14008KT P6SM SCT030 OVC080
     FM260900 12009KT 3SM -SN BKN012 OVC020
      TEMPO 2610/2613 1SM -SN OVC010
     FM261800 33010KT P6SM VCSH OVC020
     FM262100 01015G22KT P6SM OVC025
     FM270500 33014G22KT P6SM BKN030=



000
FTUS43 KDMX 260520
TAFFOD
TAF
KFOD 260520Z 2606/2706 14012KT P6SM SCT035 OVC060
     FM260700 14013KT 2SM -SN BKN012 OVC020
      TEMPO 2609/2610 1/2SM SN OVC010
     FM261100 15010KT 3SM -SN BKN009 OVC012
     FM261400 08008KT 4SM -SN OVC009
     FM261900 01011KT P6SM OVC018
     FM270300 34007KT P6SM SCT020 BKN050=



000
FTUS43 KDMX 260520
TAFMCW
TAF
KMCW 260520Z 2606/2706 15007KT P6SM OVC070
     FM261000 13009KT 4SM -SN OVC020
     FM261200 11009KT 3SM -SN OVC012
     FM261600 06012KT 2SM -SN OVC010
      TEMPO 2616/2618 1/2SM SN BKN006
     FM262100 36014G22KT P6SM OVC015
     FM270300 32017G24KT P6SM BKN025=



000
FTUS43 KDMX 260520
TAFDSM
TAF
KDSM 260520Z 2606/2706 14008KT P6SM SCT030 OVC080
     FM260900 12009KT 3SM -SN BKN012 OVC020
      TEMPO 2610/2613 1SM -SN OVC010
     FM261800 33010KT P6SM VCSH OVC020
     FM262100 01015G22KT P6SM OVC025
     FM270500 33014G22KT P6SM BKN030=



000
FTUS43 KDMX 260520
TAFALO
TAF
KALO 260520Z 2606/2706 14008KT P6SM BKN070
     FM260900 11010KT P6SM SCT012 OVC040
     FM261400 08010KT 3SM -SN OVC015
     FM262000 01008KT 2SM -SN OVC012
     FM270100 32010KT P6SM OVC025
     FM270500 32012G20KT P6SM BKN030=



000
FTUS43 KDMX 260520
TAFFOD
TAF
KFOD 260520Z 2606/2706 14012KT P6SM SCT035 OVC060
     FM260700 14013KT 2SM -SN BKN012 OVC020
      TEMPO 2609/2610 1/2SM SN OVC010
     FM261100 15010KT 3SM -SN BKN009 OVC012
     FM261400 08008KT 4SM -SN OVC009
     FM261900 01011KT P6SM OVC018
     FM270300 34007KT P6SM SCT020 BKN050=



000
FTUS43 KDMX 260520
TAFOTM
TAF
KOTM 260520Z 2606/2706 13008KT P6SM SCT040 OVC120
     FM261000 10010KT P6SM OVC040
     FM261200 13010KT 4SM -SN SCT014 OVC020
     FM261900 03009KT 2SM -SN OVC012
     FM262200 35012G20KT 5SM -SN OVC020
     FM270200 32015G22KT P6SM OVC030=



000
FTUS43 KDMX 252345
TAFOTM
TAF
KOTM 252345Z 2600/2624 18004KT P6SM FEW080 SCT200
     FM260600 13008KT P6SM SCT040 OVC120
     FM261200 10010KT P6SM OVC040
     FM261400 13010KT 4SM -SN SCT014 OVC020
     FM261900 04012KT 2SM -SN OVC012
     FM262200 36009KT 5SM -SN OVC020=



000
FTUS43 KDMX 252345
TAFALO
TAF
KALO 252345Z 2600/2624 14005KT P6SM SCT070
     FM260900 11010KT P6SM SCT012 OVC040
     FM261400 08010KT 3SM -SN OVC012
     FM262000 01008KT P6SM OVC015=



000
FTUS43 KDMX 252345
TAFMCW
TAF
KMCW 252345Z 2600/2624 15007KT P6SM OVC070
     FM260900 13009KT 4SM -SN OVC020
     FM261200 11009KT 3SM -SN OVC012
     FM261500 06011G15KT 2SM -SN OVC010
      TEMPO 2616/2619 1/2SM SN BKN006
     FM262000 36009KT P6SM OVC015=



000
FTUS43 KDMX 252345
TAFDSM
TAF
KDSM 252345Z 2600/2624 16007KT P6SM SCT200
     FM260200 15007KT P6SM SCT035 OVC100
     FM260600 13008KT P6SM SCT030 OVC070
     FM261000 10009KT 3SM -SN BKN012 OVC020
      TEMPO 2612/2614 1SM -SN OVC070
     FM261800 05010KT P6SM OVC020
     FM262100 01010KT P6SM OVC030=



000
FTUS43 KDMX 252345
TAFFOD
TAF
KFOD 252345Z 2600/2624 15006KT P6SM SCT070
     FM260200 16012KT P6SM SCT035 OVC080
     FM260700 14013G18KT 2SM -SN BKN012 OVC020
      TEMPO 2609/2610 1/2SM SN OVC010
     FM261100 13011G14KT 3SM -SN BKN009 OVC012
     FM261400 08008KT 4SM -SN OVC009
     FM261900 01011KT P6SM OVC018=



000
FTUS43 KDMX 252345
TAFMCW
TAF
KMCW 252345Z 2600/2624 15007KT P6SM OVC070
     FM260900 13009KT 4SM -SN OVC020
     FM261200 11009KT 3SM -SN OVC012
     FM261500 06011G15KT 2SM -SN OVC010
      TEMPO 2616/2619 1/2SM SN BKN006
     FM262000 36009KT P6SM OVC015=



000
FTUS43 KDMX 252345
TAFFOD
TAF
KFOD 252345Z 2600/2624 15006KT P6SM SCT070
     FM260200 16012KT P6SM SCT035 OVC080
     FM260700 14013G18KT 2SM -SN BKN012 OVC020
      TEMPO 2609/2610 1/2SM SN OVC010
     FM261100 13011G14KT 3SM -SN BKN009 OVC012
     FM261400 08008KT 4SM -SN OVC009
     FM261900 01011KT P6SM OVC018=



000
FTUS43 KDMX 252345
TAFDSM
TAF
KDSM 252345Z 2600/2624 16007KT P6SM SCT200
     FM260200 15007KT P6SM SCT035 OVC100
     FM260600 13008KT P6SM SCT030 OVC070
     FM261000 10009KT 3SM -SN BKN012 OVC020
      TEMPO 2612/2614 1SM -SN OVC070
     FM261800 05010KT P6SM OVC020
     FM262100 01010KT P6SM OVC030=



000
FTUS43 KDMX 252345
TAFALO
TAF
KALO 252345Z 2600/2624 14005KT P6SM SCT070
     FM260900 11010KT P6SM SCT012 OVC040
     FM261400 08010KT 3SM -SN OVC012
     FM262000 01008KT P6SM OVC015=



000
FTUS43 KDMX 252345
TAFOTM
TAF
KOTM 252345Z 2600/2624 18004KT P6SM FEW080 SCT200
     FM260600 13008KT P6SM SCT040 OVC120
     FM261200 10010KT P6SM OVC040
     FM261400 13010KT 4SM -SN SCT014 OVC020
     FM261900 04012KT 2SM -SN OVC012
     FM262200 36009KT 5SM -SN OVC020=



    US Dept of Commerce
    National Oceanic and Atmospheric Administration
    National Weather Service
    1325 East West Highway
    Silver Spring, MD 20910
    Page Author: NWS Internet Services Team
Disclaimer
Information Quality
Credits
Glossary
Privacy Policy
Freedom of Information Act (FOIA)
About Us
Career Opportunities